Time;durP1;ratioP1;P1;durP2;ratioP2;P2;SDS_P1;SDS_P2;PMS_P1;PMS_P2;Temp;Humidity;BMP_temperature;BMP_pressure;BME280_temperature;BME280_humidity;BME280_pressure;Samples;Min_cycle;Max_cycle;Signal;HPM_P1;HPM_P2
2022/06/04 00:04:37;;;;;;;9.67;7.00;;;20.40;99.90;;;;;;10466384;28;20244;-69
2022/06/04 00:15:28;;;;;;;10.07;7.83;;;20.40;99.90;;;;;;10464537;28;20216;-69
2022/06/04 00:20:17;;;;;;;15.73;8.63;;;20.20;99.90;;;;;;10465602;28;20208;-68
2022/06/04 00:25:18;;;;;;;13.03;8.20;;;20.10;99.90;;;;;;10473946;28;20187;-70
2022/06/04 00:30:18;;;;;;;10.47;8.23;;;19.90;99.90;;;;;;10466045;28;20330;-70
2022/06/04 00:35:20;;;;;;;9.67;7.13;;;19.70;99.90;;;;;;10471130;28;20192;-69
2022/06/04 00:40:41;;;;;;;8.00;7.10;;;19.60;99.90;;;;;;10482066;28;20183;-69
2022/06/04 00:46:19;;;;;;;10.10;7.40;;;19.40;99.90;;;;;;10468081;28;20214;-70
2022/06/04 00:51:20;;;;;;;7.00;6.37;;;19.20;99.90;;;;;;10472930;28;20220;-69
2022/06/04 00:56:45;;;;;;;7.33;6.60;;;19.10;99.90;;;;;;10479815;28;20227;-70
2022/06/04 01:01:52;;;;;;;7.83;7.13;;;19.00;99.90;;;;;;10468417;28;20561;-69
2022/06/04 01:06:59;;;;;;;8.23;7.43;;;18.90;99.90;;;;;;10476423;28;20254;-69
2022/06/04 01:12:31;;;;;;;8.87;8.03;;;18.90;99.90;;;;;;10496051;28;20233;-70
2022/06/04 01:17:43;;;;;;;9.30;8.50;;;18.90;99.90;;;;;;10466456;28;20349;-69
2022/06/04 01:23:00;;;;;;;10.87;9.73;;;18.90;99.90;;;;;;10477594;28;20709;-70
2022/06/04 01:28:16;;;;;;;11.60;10.00;;;18.90;99.90;;;;;;10479402;28;20230;-69
2022/06/04 01:33:31;;;;;;;10.73;9.63;;;18.90;99.90;;;;;;10479144;28;20249;-68
2022/06/04 01:38:45;;;;;;;10.23;9.43;;;18.90;99.90;;;;;;10465284;28;20242;-70
2022/06/04 01:43:50;;;;;;;10.73;9.73;;;18.90;99.90;;;;;;10475408;28;20226;-69
2022/06/04 01:48:56;;;;;;;12.47;9.87;;;18.90;99.90;;;;;;10474511;28;20851;-70
2022/06/04 01:54:08;;;;;;;10.93;9.73;;;18.90;99.90;;;;;;10472380;28;20569;-69
2022/06/04 01:59:28;;;;;;;11.23;10.13;;;18.80;99.90;;;;;;10486402;28;20711;-69
2022/06/04 02:04:34;;;;;;;14.03;10.10;;;18.70;99.90;;;;;;10463402;28;20626;-69
2022/06/04 02:09:37;;;;;;;10.57;9.57;;;18.70;99.90;;;;;;10477607;28;20312;-70
2022/06/04 02:14:39;;;;;;;11.37;10.37;;;18.60;99.90;;;;;;10473053;28;20216;-69
2022/06/04 02:19:41;;;;;;;11.37;10.37;;;18.60;99.90;;;;;;10475574;28;20226;-68
2022/06/04 02:24:42;;;;;;;12.57;11.37;;;18.50;99.90;;;;;;10468656;28;20230;-69
2022/06/04 02:29:43;;;;;;;11.37;10.27;;;18.40;99.90;;;;;;10469898;28;20240;-69
2022/06/04 02:34:52;;;;;;;15.47;11.93;;;18.30;99.90;;;;;;10478428;28;20310;-70
2022/06/04 02:40:07;;;;;;;13.27;12.10;;;18.30;99.90;;;;;;10469843;28;20231;-70
2022/06/04 02:45:34;;;;;;;12.53;11.43;;;18.20;99.90;;;;;;10474623;28;20670;-70
2022/06/04 02:50:48;;;;;;;11.67;10.47;;;18.20;99.90;;;;;;10455974;28;20234;-70
2022/06/04 02:55:55;;;;;;;14.97;11.60;;;18.20;99.90;;;;;;10472480;28;20218;-70
2022/06/04 03:00:58;;;;;;;12.77;11.43;;;18.10;99.90;;;;;;10471156;28;20209;-69
2022/06/04 03:06:03;;;;;;;12.90;11.73;;;18.10;99.90;;;;;;10467220;28;20265;-69
2022/06/04 03:11:04;;;;;;;12.63;11.53;;;18.10;99.90;;;;;;10468169;28;20647;-69
2022/06/04 03:16:06;;;;;;;12.13;11.20;;;18.10;99.90;;;;;;10470844;28;20588;-69
2022/06/04 03:21:06;;;;;;;13.63;12.23;;;18.10;99.90;;;;;;10473182;28;20226;-69
2022/06/04 03:26:07;;;;;;;12.33;11.20;;;18.10;99.90;;;;;;10468175;28;20694;-69
2022/06/04 03:31:07;;;;;;;12.37;11.37;;;17.90;99.90;;;;;;10475871;28;20221;-69
2022/06/04 03:36:09;;;;;;;12.53;11.33;;;17.80;99.90;;;;;;10468194;28;20233;-69
2022/06/04 03:41:10;;;;;;;11.67;10.73;;;17.80;99.90;;;;;;10472441;28;20309;-69
2022/06/04 03:46:17;;;;;;;11.43;10.20;;;17.80;99.90;;;;;;10467387;28;20313;-69
2022/06/04 03:51:18;;;;;;;10.77;9.87;;;17.90;99.90;;;;;;10473891;28;20332;-69
2022/06/04 03:56:18;;;;;;;9.93;9.03;;;17.90;99.90;;;;;;10474589;28;20223;-69
2022/06/04 04:01:23;;;;;;;10.07;9.20;;;18.10;99.90;;;;;;10468045;28;20254;-69
2022/06/04 04:06:31;;;;;;;9.63;8.67;;;18.10;99.90;;;;;;10470521;28;20231;-70
2022/06/04 04:11:31;;;;;;;9.50;8.60;;;18.20;99.90;;;;;;10468651;28;20243;-70
2022/06/04 04:16:32;;;;;;;10.17;8.80;;;18.20;99.90;;;;;;10475803;28;20253;-69
2022/06/04 04:21:39;;;;;;;9.23;8.23;;;18.30;99.90;;;;;;10477237;28;20224;-70
2022/06/04 04:26:40;;;;;;;8.80;7.63;;;18.40;99.90;;;;;;10475679;28;20223;-70
2022/06/04 04:31:41;;;;;;;8.27;7.47;;;18.40;99.90;;;;;;10479493;28;20279;-70
2022/06/04 04:36:41;;;;;;;8.17;7.33;;;18.50;99.90;;;;;;10476129;28;20290;-69
2022/06/04 04:41:42;;;;;;;7.67;6.97;;;18.70;99.90;;;;;;10480042;28;20218;-69
2022/06/04 04:46:42;;;;;;;7.80;6.73;;;19.10;99.90;;;;;;10475015;28;20752;-70
2022/06/04 04:51:43;;;;;;;8.90;6.80;;;19.20;99.90;;;;;;10480893;28;20254;-70
2022/06/04 04:56:44;;;;;;;7.70;7.03;;;19.50;99.90;;;;;;10478329;28;20289;-70
2022/06/04 05:01:44;;;;;;;7.37;6.33;;;20.00;99.90;;;;;;10475449;28;20215;-69
2022/06/04 05:06:45;;;;;;;6.17;5.57;;;21.00;99.90;;;;;;10477532;28;20316;-69
2022/06/04 05:11:46;;;;;;;5.93;5.30;;;21.90;99.90;;;;;;10474853;28;20216;-68
2022/06/04 05:16:46;;;;;;;6.63;6.03;;;22.20;99.90;;;;;;10477187;28;20228;-69
2022/06/04 05:21:48;;;;;;;6.23;5.63;;;21.90;99.90;;;;;;10474708;28;20234;-68
2022/06/04 05:26:50;;;;;;;5.50;5.10;;;22.30;99.90;;;;;;10474850;28;20252;-69
2022/06/04 05:31:52;;;;;;;8.37;5.60;;;23.70;99.90;;;;;;10479008;28;20226;-69
2022/06/04 05:36:53;;;;;;;5.37;4.87;;;24.60;99.90;;;;;;10472404;28;20226;-69
2022/06/04 05:41:53;;;;;;;6.43;4.90;;;25.50;99.90;;;;;;10468913;28;20283;-69
2022/06/04 05:46:54;;;;;;;5.90;4.70;;;26.60;99.90;;;;;;10478011;28;20653;-69
2022/06/04 05:51:55;;;;;;;5.07;4.57;;;27.10;99.90;;;;;;10475233;28;20224;-69
2022/06/04 05:56:55;;;;;;;5.00;4.50;;;27.90;99.90;;;;;;10470858;28;20235;-69
2022/06/04 06:01:56;;;;;;;6.03;4.50;;;27.10;99.90;;;;;;10474529;28;20219;-69
2022/06/04 06:06:59;;;;;;;4.93;4.17;;;27.00;99.90;;;;;;10472090;28;20227;-70
2022/06/04 06:12:00;;;;;;;4.60;4.20;;;26.50;99.90;;;;;;10468645;28;20219;-69
2022/06/04 06:17:00;;;;;;;4.90;4.47;;;26.30;99.90;;;;;;10471648;28;20219;-70
2022/06/04 06:22:01;;;;;;;5.20;4.70;;;26.70;99.90;;;;;;10472361;28;20222;-68
2022/06/04 06:27:02;;;;;;;5.30;4.90;;;26.40;99.90;;;;;;10465074;28;20223;-69
2022/06/04 06:32:04;;;;;;;4.40;4.00;;;26.00;99.90;;;;;;10467315;28;20701;-68
2022/06/04 06:37:05;;;;;;;7.13;4.27;;;26.50;99.90;;;;;;10473985;28;20573;-69
2022/06/04 06:42:05;;;;;;;4.80;4.40;;;26.60;99.90;;;;;;10470710;28;20223;-69
2022/06/04 06:47:07;;;;;;;5.50;5.00;;;26.00;99.90;;;;;;10489481;28;20233;-70
2022/06/04 06:52:09;;;;;;;5.67;5.17;;;25.80;99.90;;;;;;10471762;28;20235;-70
2022/06/04 06:57:11;;;;;;;4.93;4.43;;;25.20;99.90;;;;;;10475063;28;20214;-70
2022/06/04 07:02:12;;;;;;;4.27;3.97;;;25.10;99.90;;;;;;10469376;28;20249;-69
2022/06/04 07:07:13;;;;;;;5.30;4.90;;;25.20;99.90;;;;;;10476324;28;20230;-70
2022/06/04 07:12:20;;;;;;;5.30;4.80;;;25.40;99.90;;;;;;10485145;28;20218;-69
2022/06/04 07:17:20;;;;;;;5.70;5.07;;;25.70;99.90;;;;;;10476284;28;20731;-69
2022/06/04 07:22:21;;;;;;;5.00;4.60;;;25.30;99.90;;;;;;10475145;28;20310;-70
2022/06/04 07:27:21;;;;;;;4.50;4.10;;;24.60;99.90;;;;;;10474744;28;20228;-71
2022/06/04 07:32:22;;;;;;;4.73;4.43;;;24.30;99.90;;;;;;10468094;28;20215;-71
2022/06/04 07:37:23;;;;;;;4.77;4.27;;;24.20;99.90;;;;;;10467694;28;20239;-72
2022/06/04 07:42:23;;;;;;;4.50;3.93;;;24.30;99.90;;;;;;10478936;28;20310;-71
2022/06/04 07:47:24;;;;;;;6.50;3.53;;;24.80;99.90;;;;;;10476154;28;20716;-70
2022/06/04 07:52:24;;;;;;;3.87;3.57;;;25.80;99.90;;;;;;10467525;28;20251;-70
2022/06/04 07:57:25;;;;;;;5.30;4.83;;;27.00;99.90;;;;;;10474169;28;20226;-73
2022/06/04 08:02:26;;;;;;;5.00;3.97;;;26.40;99.90;;;;;;10475583;28;20226;-70
2022/06/04 08:07:27;;;;;;;5.13;4.47;;;26.20;99.90;;;;;;10480102;28;20259;-70
2022/06/04 08:12:33;;;;;;;4.50;4.20;;;26.00;99.90;;;;;;10473931;28;20234;-69
2022/06/04 08:17:34;;;;;;;4.40;4.00;;;25.70;99.90;;;;;;10480687;28;20818;-69
2022/06/04 08:22:35;;;;;;;6.53;3.80;;;25.90;99.90;;;;;;10467067;28;20247;-69
2022/06/04 08:27:36;;;;;;;4.03;3.70;;;26.20;99.90;;;;;;10474154;28;20715;-69
2022/06/04 08:32:36;;;;;;;5.10;4.70;;;27.50;99.90;;;;;;10474570;28;20575;-68
2022/06/04 08:37:37;;;;;;;5.13;3.50;;;28.60;97.70;;;;;;10481469;28;20247;-70
2022/06/04 08:42:58;;;;;;;3.80;3.40;;;30.00;92.60;;;;;;10476590;28;20219;-71
2022/06/04 08:47:59;;;;;;;3.73;3.43;;;29.90;90.60;;;;;;10476958;28;20337;-69
2022/06/04 08:53:01;;;;;;;3.90;3.60;;;31.00;83.60;;;;;;10472952;28;20327;-70
2022/06/04 08:58:19;;;;;;;2.33;2.23;;;31.30;79.90;;;;;;10469921;28;20664;-70
2022/06/04 09:03:35;;;;;;;2.23;2.03;;;31.60;71.90;;;;;;10472550;28;20227;-70
2022/06/04 09:08:45;;;;;;;1.97;1.87;;;32.80;63.00;;;;;;10474244;28;20255;-70
2022/06/04 09:14:13;;;;;;;2.90;2.33;;;33.40;58.40;;;;;;10490299;28;20283;-69
2022/06/04 09:19:19;;;;;;;2.60;2.40;;;33.90;59.40;;;;;;10460705;28;20709;-70
2022/06/04 09:24:19;;;;;;;2.10;2.00;;;36.00;54.60;;;;;;10476336;28;20224;-70
2022/06/04 09:29:39;;;;;;;2.53;1.80;;;36.90;49.20;;;;;;10460683;28;20227;-71
2022/06/04 09:34:47;;;;;;;2.27;2.10;;;37.50;49.40;;;;;;10460500;28;20303;-70
2022/06/04 09:40:04;;;;;;;5.80;2.33;;;38.20;44.30;;;;;;10471142;28;20234;-70
2022/06/04 09:45:05;;;;;;;2.80;2.43;;;36.80;45.30;;;;;;10487392;28;20216;-70
2022/06/04 09:50:26;;;;;;;3.17;2.80;;;34.40;50.50;;;;;;10471515;28;20243;-71
2022/06/04 09:55:28;;;;;;;3.30;3.00;;;32.30;55.30;;;;;;10461062;28;20222;-69
2022/06/04 10:00:35;;;;;;;3.50;3.20;;;31.40;57.30;;;;;;10464748;28;20245;-69
2022/06/04 10:05:35;;;;;;;3.30;3.00;;;31.50;58.50;;;;;;10468285;28;20695;-70
2022/06/04 10:10:43;;;;;;;3.90;3.60;;;32.00;56.80;;;;;;10469677;28;20227;-69
2022/06/04 10:15:47;;;;;;;3.80;3.40;;;30.90;59.20;;;;;;10470571;28;20224;-69
2022/06/04 10:21:03;;;;;;;8.27;3.30;;;29.90;62.50;;;;;;10460423;28;20330;-69
2022/06/04 10:26:12;;;;;;;3.13;2.93;;;29.30;64.70;;;;;;10466806;28;20592;-70
2022/06/04 10:31:54;;;;;;;3.27;3.07;;;29.80;63.00;;;;;;10463152;28;20241;-70
2022/06/04 10:37:22;;;;;;;3.10;2.90;;;29.70;62.60;;;;;;10465378;28;20630;-70
2022/06/04 10:42:41;;;;;;;3.00;2.60;;;29.70;63.80;;;;;;10467190;28;20242;-70
2022/06/04 10:48:03;;;;;;;2.80;2.47;;;29.90;61.60;;;;;;10462788;28;20262;-69
2022/06/04 10:53:19;;;;;;;2.70;2.50;;;30.00;61.90;;;;;;10473025;28;20273;-69
2022/06/04 10:58:26;;;;;;;3.13;2.60;;;30.40;60.70;;;;;;10461894;28;20269;-69
2022/06/04 11:03:50;;;;;;;2.77;2.57;;;30.00;60.10;;;;;;10452548;28;20235;-70
2022/06/04 11:09:03;;;;;;;2.60;2.40;;;30.10;60.00;;;;;;10466104;28;20670;-71
2022/06/04 11:14:16;;;;;;;2.70;2.50;;;30.40;59.50;;;;;;10468028;28;20909;-69
2022/06/04 11:19:29;;;;;;;3.17;2.97;;;31.80;57.30;;;;;;10461716;28;20234;-69
2022/06/04 11:24:41;;;;;;;3.10;2.90;;;31.30;57.40;;;;;;10444490;28;20311;-70
2022/06/04 11:29:42;;;;;;;2.40;2.17;;;31.50;56.60;;;;;;10463585;28;20705;-69
2022/06/04 11:34:57;;;;;;;2.87;2.50;;;31.40;56.90;;;;;;10471555;28;20610;-69
2022/06/04 11:40:03;;;;;;;2.80;2.60;;;31.00;57.20;;;;;;10467046;28;20240;-69
2022/06/04 11:45:04;;;;;;;4.83;2.53;;;30.10;58.40;;;;;;10465191;28;20264;-68
2022/06/04 11:50:35;;;;;;;2.93;2.73;;;29.30;61.80;;;;;;10487604;28;20219;-69
2022/06/04 11:56:04;;;;;;;3.17;2.90;;;29.50;61.90;;;;;;10458439;28;20218;-68
2022/06/04 12:01:15;;;;;;;3.67;2.80;;;29.00;63.50;;;;;;10471823;28;20215;-69
2022/06/04 12:06:34;;;;;;;3.50;3.20;;;29.20;64.20;;;;;;10473665;28;20230;-69
2022/06/04 12:12:01;;;;;;;4.43;3.30;;;29.50;64.60;;;;;;10458811;28;20624;-70
2022/06/04 12:17:21;;;;;;;3.47;3.17;;;30.60;60.70;;;;;;10466073;28;20258;-70
2022/06/04 12:28:00;;;;;;;4.00;3.70;;;30.10;62.30;;;;;;10463486;28;20243;-70
2022/06/04 12:39:24;;;;;;;3.20;2.80;;;29.40;64.90;;;;;;10468699;28;20219;-69
2022/06/04 12:44:34;;;;;;;3.10;2.77;;;29.20;66.00;;;;;;10474312;28;20798;-70
2022/06/04 12:49:45;;;;;;;3.23;3.03;;;28.70;67.80;;;;;;10474086;28;20227;-70
2022/06/04 12:54:54;;;;;;;3.20;3.00;;;28.20;68.90;;;;;;10471625;28;20552;-70
2022/06/04 13:00:13;;;;;;;3.70;3.00;;;28.00;70.40;;;;;;10475368;28;20234;-69
2022/06/04 13:05:21;;;;;;;3.50;3.20;;;27.50;72.00;;;;;;10470831;28;20308;-70
2022/06/04 13:10:25;;;;;;;3.17;2.97;;;27.40;72.30;;;;;;10480345;28;20213;-69
2022/06/04 13:15:52;;;;;;;3.30;3.10;;;27.10;73.60;;;;;;10468166;28;20265;-68
2022/06/04 13:20:58;;;;;;;3.00;2.80;;;27.20;73.40;;;;;;10469557;28;20246;-68
2022/06/04 13:26:13;;;;;;;4.00;2.73;;;27.30;72.50;;;;;;10467297;28;20750;-69
2022/06/04 13:31:24;;;;;;;4.57;3.00;;;27.80;72.00;;;;;;10488701;28;20268;-68
2022/06/04 13:36:30;;;;;;;3.50;3.10;;;28.20;70.00;;;;;;10469867;28;20231;-68
2022/06/04 13:47:04;;;;;;;3.00;2.70;;;27.70;71.00;;;;;;10465121;28;20227;-69
2022/06/04 13:52:17;;;;;;;3.30;2.63;;;27.70;71.00;;;;;;10468448;28;20690;-68
2022/06/04 13:57:24;;;;;;;3.37;2.80;;;27.70;70.30;;;;;;10468690;28;20793;-68
2022/06/04 14:02:28;;;;;;;4.70;2.80;;;27.50;70.60;;;;;;10465152;28;20261;-69
2022/06/04 14:07:34;;;;;;;7.50;3.10;;;27.40;71.60;;;;;;10461110;28;20312;-69
2022/06/04 14:13:07;;;;;;;2.87;2.57;;;27.20;75.50;;;;;;10467049;28;20223;-69
2022/06/04 14:18:16;;;;;;;3.00;2.67;;;27.00;76.70;;;;;;10475579;28;20721;-69
2022/06/04 14:23:35;;;;;;;4.30;2.70;;;26.70;78.30;;;;;;10485691;28;20292;-69
2022/06/04 14:28:52;;;;;;;3.00;2.80;;;26.40;79.10;;;;;;10477815;28;20227;-69
2022/06/04 14:33:58;;;;;;;4.53;2.93;;;26.50;78.90;;;;;;10459610;28;20227;-68
2022/06/04 14:39:01;;;;;;;6.00;3.27;;;26.80;78.30;;;;;;10464297;28;20698;-68
2022/06/04 14:44:23;;;;;;;4.33;3.17;;;26.80;76.40;;;;;;10468112;28;20254;-69
2022/06/04 14:49:23;;;;;;;3.53;2.97;;;26.90;76.60;;;;;;10476215;28;20594;-69
2022/06/04 14:54:25;;;;;;;3.00;2.80;;;27.00;75.70;;;;;;10465796;28;20222;-69
2022/06/04 14:59:41;;;;;;;4.97;3.13;;;27.10;75.80;;;;;;10459811;28;20229;-69
2022/06/04 15:10:27;;;;;;;3.80;3.00;;;27.10;75.30;;;;;;10477988;28;20227;-69
2022/06/04 15:15:31;;;;;;;4.43;2.70;;;27.00;74.20;;;;;;10445824;28;20215;-69
2022/06/04 15:20:35;;;;;;;5.93;3.17;;;27.00;74.10;;;;;;10482503;28;20222;-69
2022/06/04 15:25:38;;;;;;;3.23;2.93;;;26.90;74.50;;;;;;10466454;28;20245;-69
2022/06/04 15:36:31;;;;;;;3.80;2.90;;;27.00;74.90;;;;;;10467195;28;20218;-69
2022/06/04 15:41:58;;;;;;;3.73;2.90;;;27.00;76.30;;;;;;10460304;28;20222;-69
2022/06/04 15:47:07;;;;;;;3.43;3.13;;;26.90;75.00;;;;;;10471067;28;20887;-70
2022/06/04 15:58:12;;;;;;;2.77;2.57;;;26.10;77.90;;;;;;10466931;28;20212;-70
2022/06/04 16:03:27;;;;;;;2.83;2.57;;;25.80;76.60;;;;;;10468767;28;20688;-69
2022/06/04 16:08:29;;;;;;;3.00;2.70;;;25.90;76.10;;;;;;10465556;28;20814;-70
2022/06/04 16:13:46;;;;;;;3.00;2.10;;;26.10;76.10;;;;;;10470276;28;20219;-68
2022/06/04 16:19:15;;;;;;;2.17;1.97;;;26.20;76.60;;;;;;10476320;28;20218;-69
2022/06/04 16:24:34;;;;;;;4.03;2.50;;;26.30;76.20;;;;;;10471609;28;20738;-70
2022/06/04 16:29:37;;;;;;;3.83;3.33;;;26.30;75.70;;;;;;10465205;28;20635;-70
2022/06/04 16:34:46;;;;;;;5.47;2.57;;;26.20;78.40;;;;;;10473427;28;20214;-70
2022/06/04 16:39:47;;;;;;;2.83;2.23;;;26.00;77.30;;;;;;10483761;28;20215;-69
2022/06/04 16:45:08;;;;;;;2.67;2.40;;;25.90;75.20;;;;;;10457371;28;20683;-68
2022/06/04 16:50:09;;;;;;;4.07;2.83;;;25.90;77.80;;;;;;10470743;28;20618;-69
2022/06/04 16:55:14;;;;;;;4.77;3.00;;;25.90;80.00;;;;;;10465192;28;20257;-71
2022/06/04 17:00:20;;;;;;;2.90;2.70;;;25.80;80.50;;;;;;10472636;28;20197;-70
2022/06/04 17:05:32;;;;;;;3.77;2.47;;;25.70;80.60;;;;;;10469457;28;20220;-69
2022/06/04 17:10:36;;;;;;;3.30;2.90;;;25.80;80.00;;;;;;10465459;28;20355;-70
2022/06/04 17:15:58;;;;;;;3.53;2.57;;;25.80;82.20;;;;;;10472022;28;20224;-69
2022/06/04 17:21:27;;;;;;;2.47;2.27;;;25.80;79.70;;;;;;10473736;28;20238;-70
2022/06/04 17:26:42;;;;;;;3.53;2.20;;;25.70;78.80;;;;;;10457141;28;20659;-69
2022/06/04 17:32:10;;;;;;;3.70;2.20;;;25.60;79.50;;;;;;10472104;28;20211;-69
2022/06/04 17:37:42;;;;;;;2.50;2.33;;;25.50;79.60;;;;;;10476633;28;20222;-69
2022/06/04 17:42:43;;;;;;;2.73;2.20;;;25.50;79.10;;;;;;10461065;28;20212;-69
2022/06/04 17:47:43;;;;;;;2.67;2.03;;;25.40;79.20;;;;;;10468295;28;20257;-69
2022/06/04 17:52:45;;;;;;;2.43;2.23;;;25.40;77.30;;;;;;10474015;28;20284;-69
2022/06/04 17:57:47;;;;;;;2.97;2.10;;;25.40;78.10;;;;;;10478097;28;20233;-69
2022/06/04 18:02:49;;;;;;;2.23;2.00;;;25.30;78.60;;;;;;10461945;28;20220;-69
2022/06/04 18:07:50;;;;;;;2.47;2.10;;;25.30;78.00;;;;;;10471017;28;20228;-70
2022/06/04 18:12:51;;;;;;;2.80;2.20;;;25.30;78.00;;;;;;10475242;28;20247;-70
2022/06/04 18:17:52;;;;;;;2.07;1.97;;;25.20;78.10;;;;;;10463821;28;20257;-69
2022/06/04 18:22:53;;;;;;;1.93;1.83;;;25.10;78.50;;;;;;10474389;28;20314;-69
2022/06/04 18:27:55;;;;;;;2.60;2.23;;;25.00;79.00;;;;;;10472411;28;20231;-70
2022/06/04 18:32:56;;;;;;;3.50;2.50;;;25.00;79.80;;;;;;10464879;28;20225;-69
2022/06/04 18:37:57;;;;;;;2.20;2.10;;;24.80;81.10;;;;;;10473622;28;20861;-70
2022/06/04 18:59:02;;;;;;;3.93;2.53;;;24.40;87.50;;;;;;10473803;28;20612;-70
2022/06/04 19:04:05;;;;;;;3.20;2.90;;;24.30;88.50;;;;;;10455450;28;20223;-69
2022/06/04 19:09:05;;;;;;;3.27;2.97;;;24.30;89.40;;;;;;10468571;28;20661;-70
2022/06/04 19:14:07;;;;;;;4.03;3.20;;;24.10;90.30;;;;;;10477352;28;20243;-70
2022/06/04 19:19:11;;;;;;;3.70;2.90;;;24.00;90.90;;;;;;10474327;28;20215;-69
2022/06/04 19:29:34;;;;;;;3.27;2.90;;;23.80;91.60;;;;;;10452358;28;20247;-69
2022/06/04 19:34:36;;;;;;;3.27;3.07;;;23.70;91.90;;;;;;10474679;28;20223;-70
2022/06/04 19:39:37;;;;;;;6.27;3.60;;;23.60;92.30;;;;;;10476691;28;20230;-69
2022/06/04 19:44:38;;;;;;;4.37;3.80;;;23.50;92.70;;;;;;10465646;28;20219;-71
2022/06/04 19:49:46;;;;;;;6.00;3.97;;;23.30;93.30;;;;;;10468548;28;20272;-70
2022/06/04 19:55:06;;;;;;;4.03;3.73;;;23.20;93.80;;;;;;10473150;28;20268;-69
2022/06/04 20:00:10;;;;;;;5.53;4.47;;;23.00;94.50;;;;;;10469862;28;20234;-70
2022/06/04 20:05:13;;;;;;;5.60;3.60;;;22.90;95.10;;;;;;10466606;28;20677;-70
2022/06/04 20:10:14;;;;;;;4.43;3.70;;;22.80;95.80;;;;;;10465728;28;20251;-70
2022/06/04 20:15:15;;;;;;;3.40;3.10;;;22.60;96.40;;;;;;10466960;28;20223;-70
2022/06/04 20:20:19;;;;;;;5.17;3.30;;;22.60;96.90;;;;;;10459026;28;20187;-69
2022/06/04 20:25:20;;;;;;;5.87;3.30;;;22.60;97.30;;;;;;10465914;28;20187;-69
2022/06/04 20:30:20;;;;;;;5.23;3.13;;;22.50;97.80;;;;;;10474655;28;20226;-69
2022/06/04 20:35:22;;;;;;;3.67;3.30;;;22.50;98.20;;;;;;10466521;28;20196;-70
2022/06/04 20:40:23;;;;;;;4.47;3.10;;;22.50;98.70;;;;;;10474347;28;20231;-70
2022/06/04 20:45:24;;;;;;;3.63;3.33;;;22.40;99.40;;;;;;10466074;28;20251;-70
2022/06/04 20:50:26;;;;;;;5.03;3.67;;;22.40;99.90;;;;;;10479782;28;20384;-70
2022/06/04 20:55:26;;;;;;;3.40;3.10;;;22.30;99.90;;;;;;10461423;28;20297;-70
2022/06/04 21:00:27;;;;;;;5.40;3.40;;;22.20;99.90;;;;;;10465045;28;20215;-69
2022/06/04 21:05:28;;;;;;;3.70;3.40;;;22.20;99.90;;;;;;10472154;28;20757;-70
2022/06/04 21:10:28;;;;;;;3.83;3.10;;;22.10;99.90;;;;;;10472166;28;20235;-69
2022/06/04 21:15:31;;;;;;;5.07;3.37;;;22.00;99.90;;;;;;10480109;28;20262;-69
2022/06/04 21:20:32;;;;;;;4.73;3.13;;;21.90;99.90;;;;;;10472729;28;20219;-70
2022/06/04 21:25:41;;;;;;;3.90;3.00;;;21.90;99.90;;;;;;10472545;28;20594;-69
2022/06/04 21:30:42;;;;;;;3.20;2.80;;;21.70;99.90;;;;;;10476710;28;20215;-70
2022/06/04 21:41:10;;;;;;;3.83;3.43;;;21.50;99.90;;;;;;10471220;28;20712;-69
2022/06/04 21:46:11;;;;;;;4.07;3.50;;;21.40;99.90;;;;;;10469186;28;20275;-70
2022/06/04 21:51:12;;;;;;;3.50;3.20;;;21.40;99.90;;;;;;10464866;28;20227;-70
2022/06/04 21:56:13;;;;;;;4.27;3.87;;;21.30;99.90;;;;;;10473555;28;20338;-70
2022/06/04 22:01:26;;;;;;;3.73;3.40;;;21.20;99.90;;;;;;10463649;28;20366;-69
2022/06/04 22:06:28;;;;;;;4.40;4.00;;;21.10;99.90;;;;;;10478447;28;20857;-69
2022/06/04 22:11:29;;;;;;;4.40;4.00;;;21.10;99.90;;;;;;10454585;28;20702;-70
2022/06/04 22:16:31;;;;;;;4.70;4.30;;;20.90;99.90;;;;;;10477909;28;20207;-70
2022/06/04 22:21:33;;;;;;;4.50;4.10;;;20.90;99.90;;;;;;10469292;28;20251;-69
2022/06/04 22:26:33;;;;;;;4.70;4.00;;;20.80;99.90;;;;;;10478412;28;20227;-69
2022/06/04 22:31:34;;;;;;;4.50;4.20;;;20.80;99.90;;;;;;10460594;28;20644;-71
2022/06/04 22:36:36;;;;;;;5.40;4.90;;;20.70;99.90;;;;;;10476849;28;20223;-70
2022/06/04 22:41:37;;;;;;;5.57;5.07;;;20.60;99.90;;;;;;10469444;28;20211;-70
2022/06/04 22:46:39;;;;;;;4.97;4.47;;;20.60;99.90;;;;;;10468343;28;20820;-69
2022/06/04 22:51:51;;;;;;;4.87;4.47;;;20.50;99.90;;;;;;10475330;28;20218;-69
2022/06/04 22:56:53;;;;;;;5.50;5.00;;;20.50;99.90;;;;;;10466675;28;20223;-69
2022/06/04 23:01:55;;;;;;;5.50;5.07;;;20.40;99.90;;;;;;10466928;28;20511;-71
2022/06/04 23:06:56;;;;;;;6.40;5.60;;;20.40;99.90;;;;;;10459946;28;20238;-70
2022/06/04 23:23:03;;;;;;;6.03;5.53;;;20.30;99.90;;;;;;10459489;28;20211;-70
2022/06/04 23:27:56;;;;;;;6.43;5.83;;;20.30;99.90;;;;;;10467586;28;20216;-70
2022/06/04 23:32:57;;;;;;;7.20;6.50;;;20.30;99.90;;;;;;10465608;28;20216;-69
2022/06/04 23:37:58;;;;;;;6.53;5.83;;;20.30;99.90;;;;;;10467391;28;20211;-69
2022/06/04 23:43:00;;;;;;;6.30;5.70;;;20.30;99.90;;;;;;10463301;28;20219;-70
2022/06/04 23:48:01;;;;;;;6.50;5.90;;;20.30;99.90;;;;;;10474290;28;20609;-71
2022/06/04 23:53:02;;;;;;;9.03;6.60;;;20.20;99.90;;;;;;10477006;28;20235;-69
2022/06/04 23:58:05;;;;;;;6.93;6.30;;;20.10;99.90;;;;;;10467127;28;20280;-70
